Time;durP1;ratioP1;P1;durP2;ratioP2;P2;SDS_P1;SDS_P2;PMS_P1;PMS_P2;Temp;Humidity;BMP_temperature;BMP_pressure;BME280_temperature;BME280_humidity;BME280_pressure;Samples;Min_cycle;Max_cycle;Signal;HPM_P1;HPM_P2
2022/01/04 00:01:57;;;;;;;32.67;13.85;;;10.90;99.90;;;;;;5053686;28;20048;-73
2022/01/04 00:05:01;;;;;;;21.10;7.35;;;10.90;99.90;;;;;;5053687;28;20055;-73
2022/01/04 00:08:10;;;;;;;29.15;12.15;;;10.80;99.90;;;;;;5052741;28;20060;-73
2022/01/04 00:11:20;;;;;;;19.05;7.90;;;10.90;99.90;;;;;;5053451;28;20036;-73
2022/01/04 00:14:25;;;;;;;30.83;11.90;;;10.80;99.90;;;;;;5053514;28;20514;-73
2022/01/04 00:17:29;;;;;;;23.80;9.50;;;10.80;99.90;;;;;;5053467;28;20151;-73
2022/01/04 00:20:33;;;;;;;35.53;12.93;;;10.90;99.90;;;;;;5053211;28;20048;-73
2022/01/04 00:23:37;;;;;;;25.42;8.73;;;10.90;99.90;;;;;;5053221;28;20067;-73
2022/01/04 00:26:41;;;;;;;21.48;7.93;;;10.90;99.90;;;;;;5053312;28;20047;-73
2022/01/04 00:29:45;;;;;;;20.27;7.63;;;10.80;99.90;;;;;;5051905;28;20040;-73
2022/01/04 00:32:50;;;;;;;19.70;7.78;;;10.80;99.90;;;;;;5052979;28;20040;-74
2022/01/04 00:35:53;;;;;;;16.23;7.05;;;10.70;99.90;;;;;;5053203;28;20048;-73
2022/01/04 00:38:57;;;;;;;17.77;7.93;;;10.60;99.90;;;;;;5051508;28;20056;-73
2022/01/04 00:42:05;;;;;;;17.77;7.45;;;10.70;99.90;;;;;;5053183;28;20044;-73
2022/01/04 00:45:10;;;;;;;26.65;9.80;;;10.70;99.90;;;;;;5051917;28;20064;-73
2022/01/04 00:51:19;;;;;;;29.25;10.77;;;10.60;99.90;;;;;;5052267;28;20052;-73
2022/01/04 00:54:23;;;;;;;17.65;6.75;;;10.60;99.90;;;;;;5052046;28;20055;-73
2022/01/04 00:57:28;;;;;;;28.30;9.70;;;10.70;99.90;;;;;;5051931;28;20055;-73
2022/01/04 01:00:32;;;;;;;20.52;8.95;;;10.70;99.90;;;;;;5051702;28;20044;-73
2022/01/04 01:03:38;;;;;;;28.05;8.82;;;10.80;99.90;;;;;;5051770;28;20067;-73
2022/01/04 01:06:42;;;;;;;15.48;6.32;;;10.80;99.90;;;;;;5051787;28;20052;-73
2022/01/04 01:10:06;;;;;;;39.05;14.77;;;10.80;99.90;;;;;;5051376;28;20068;-73
2022/01/04 01:13:12;;;;;;;18.13;6.65;;;10.80;99.90;;;;;;5051942;28;20052;-73
2022/01/04 01:16:16;;;;;;;17.10;6.45;;;10.80;99.90;;;;;;5051894;28;20048;-73
2022/01/04 01:19:21;;;;;;;14.57;6.85;;;10.90;99.90;;;;;;5050855;28;20060;-73
2022/01/04 01:22:25;;;;;;;16.77;5.95;;;11.00;99.90;;;;;;5050907;28;20028;-73
2022/01/04 01:25:29;;;;;;;31.27;9.30;;;10.90;99.90;;;;;;5051679;28;20039;-73
2022/01/04 01:28:35;;;;;;;19.33;7.85;;;10.90;99.90;;;;;;5050701;28;20044;-73
2022/01/04 01:31:39;;;;;;;15.35;5.68;;;10.80;99.90;;;;;;5051507;28;20084;-73
2022/01/04 01:34:44;;;;;;;20.77;7.93;;;10.80;99.90;;;;;;5051381;28;20044;-73
2022/01/04 01:37:49;;;;;;;38.03;10.80;;;10.80;99.90;;;;;;5051489;28;20052;-74
2022/01/04 01:40:53;;;;;;;41.38;11.48;;;10.80;99.90;;;;;;5051249;28;20056;-73
2022/01/04 01:43:57;;;;;;;37.42;11.73;;;10.90;99.90;;;;;;5051495;28;20047;-73
2022/01/04 01:47:02;;;;;;;9.75;5.07;;;10.90;99.90;;;;;;5051291;28;20393;-73
2022/01/04 01:50:07;;;;;;;15.23;5.47;;;10.90;99.90;;;;;;5050244;28;20040;-73
2022/01/04 01:53:11;;;;;;;32.72;11.00;;;10.80;99.90;;;;;;5051599;28;20056;-73
2022/01/04 01:56:14;;;;;;;21.35;7.47;;;10.80;99.90;;;;;;5051443;28;20063;-73
2022/01/04 01:59:19;;;;;;;22.55;6.80;;;10.80;99.90;;;;;;5049581;28;20539;-73
2022/01/04 02:02:24;;;;;;;19.95;6.13;;;10.90;99.90;;;;;;5051349;28;20052;-73
2022/01/04 02:05:28;;;;;;;17.13;5.97;;;10.80;99.90;;;;;;5051149;28;20052;-72
2022/01/04 02:08:33;;;;;;;19.30;6.22;;;10.60;99.90;;;;;;5050126;28;20048;-73
2022/01/04 02:11:38;;;;;;;13.73;5.80;;;10.50;99.90;;;;;;5050857;28;20035;-73
2022/01/04 02:14:49;;;;;;;17.67;5.13;;;10.50;99.90;;;;;;5051216;28;20044;-73
2022/01/04 02:17:54;;;;;;;24.30;8.07;;;10.40;99.90;;;;;;5051204;28;20052;-72
2022/01/04 02:20:58;;;;;;;23.52;7.78;;;10.50;99.90;;;;;;5050049;28;20278;-73
2022/01/04 02:24:03;;;;;;;15.00;5.15;;;10.60;99.90;;;;;;5050730;28;20060;-73
2022/01/04 02:27:09;;;;;;;24.05;6.13;;;10.60;99.90;;;;;;5050720;28;20128;-73
2022/01/04 02:30:17;;;;;;;17.92;7.28;;;10.70;99.90;;;;;;5050135;28;20064;-73
2022/01/04 02:33:20;;;;;;;21.65;7.55;;;10.70;99.90;;;;;;5053287;28;20044;-73
2022/01/04 02:36:24;;;;;;;17.85;5.80;;;10.60;99.90;;;;;;5054866;28;20052;-73
2022/01/04 02:39:30;;;;;;;18.70;5.70;;;10.60;99.90;;;;;;5054609;28;20064;-73
2022/01/04 02:42:35;;;;;;;17.73;7.18;;;10.70;99.90;;;;;;5054608;28;20040;-73
2022/01/04 02:45:39;;;;;;;14.73;5.57;;;10.80;99.90;;;;;;5054869;28;20044;-73
2022/01/04 02:48:44;;;;;;;14.88;4.78;;;10.80;99.90;;;;;;5054249;28;20075;-73
2022/01/04 02:51:50;;;;;;;16.42;5.00;;;10.90;99.90;;;;;;5054616;28;20056;-73
2022/01/04 02:54:53;;;;;;;17.95;5.60;;;10.90;99.90;;;;;;5054716;28;20052;-73
2022/01/04 02:57:57;;;;;;;21.15;6.70;;;10.90;99.90;;;;;;5054688;28;20051;-73
2022/01/04 03:01:02;;;;;;;14.73;5.10;;;11.00;99.90;;;;;;5054348;28;20404;-73
2022/01/04 03:04:07;;;;;;;24.25;7.15;;;11.00;99.90;;;;;;5055020;28;20048;-74
2022/01/04 03:07:12;;;;;;;16.55;6.10;;;11.00;99.90;;;;;;5054624;28;20048;-73
2022/01/04 03:10:17;;;;;;;26.65;7.57;;;11.00;99.90;;;;;;5054191;28;20056;-73
2022/01/04 03:13:21;;;;;;;22.77;7.07;;;11.00;99.90;;;;;;5054697;28;20383;-72
2022/01/04 03:16:25;;;;;;;20.98;7.78;;;11.10;99.90;;;;;;5054604;28;20048;-73
2022/01/04 03:19:30;;;;;;;18.58;7.55;;;11.10;99.90;;;;;;5054039;28;20048;-73
2022/01/04 03:22:34;;;;;;;18.63;5.53;;;11.10;99.90;;;;;;5053587;28;20471;-73
2022/01/04 03:25:40;;;;;;;16.73;6.28;;;11.10;99.90;;;;;;5054124;28;20055;-72
2022/01/04 03:28:44;;;;;;;35.65;10.65;;;11.10;99.90;;;;;;5053753;28;20047;-73
2022/01/04 03:31:49;;;;;;;17.65;6.32;;;11.10;99.90;;;;;;5053646;28;20872;-73
2022/01/04 03:34:53;;;;;;;18.98;5.72;;;11.00;99.90;;;;;;5054017;28;20043;-73
2022/01/04 03:37:57;;;;;;;17.90;5.40;;;11.00;99.90;;;;;;5053961;28;20044;-73
2022/01/04 03:41:01;;;;;;;16.35;6.30;;;11.00;99.90;;;;;;5053829;28;20439;-73
2022/01/04 03:44:06;;;;;;;11.73;5.47;;;11.10;99.90;;;;;;5053909;28;20063;-73
2022/01/04 03:47:11;;;;;;;19.17;5.75;;;11.00;99.90;;;;;;5053836;28;20430;-74
2022/01/04 03:50:15;;;;;;;18.55;6.15;;;10.90;99.90;;;;;;5053058;28;20495;-73
2022/01/04 03:53:19;;;;;;;18.17;6.15;;;10.70;99.90;;;;;;5053123;28;20376;-74
2022/01/04 03:56:23;;;;;;;15.25;5.43;;;10.70;99.90;;;;;;5053131;28;20495;-74
2022/01/04 03:59:27;;;;;;;10.07;4.97;;;10.70;99.90;;;;;;5052802;28;20048;-73
2022/01/04 04:02:31;;;;;;;19.23;4.93;;;10.80;99.90;;;;;;5052913;28;20487;-73
2022/01/04 04:05:35;;;;;;;15.48;6.88;;;10.80;99.90;;;;;;5053214;28;20411;-73
2022/01/04 04:08:40;;;;;;;12.52;4.80;;;11.00;99.90;;;;;;5052366;28;20059;-73
2022/01/04 04:11:43;;;;;;;19.15;4.78;;;11.00;99.90;;;;;;5052760;28;20036;-73
2022/01/04 04:14:47;;;;;;;12.98;4.13;;;11.10;99.90;;;;;;5053158;28;20047;-73
2022/01/04 04:17:51;;;;;;;15.93;4.78;;;11.10;99.90;;;;;;5052895;28;20056;-73
2022/01/04 04:20:55;;;;;;;16.17;4.78;;;11.20;99.90;;;;;;5052965;28;20059;-73
2022/01/04 04:23:59;;;;;;;15.93;5.07;;;11.20;99.90;;;;;;5052421;28;20591;-74
2022/01/04 04:27:04;;;;;;;18.42;4.80;;;11.30;99.90;;;;;;5052723;28;20048;-73
2022/01/04 04:30:09;;;;;;;15.07;4.03;;;11.20;99.90;;;;;;5052458;28;20511;-73
2022/01/04 04:33:13;;;;;;;16.35;4.78;;;11.20;99.90;;;;;;5051677;28;20124;-73
2022/01/04 04:36:17;;;;;;;12.02;4.78;;;11.30;99.90;;;;;;5052843;28;20480;-73
2022/01/04 04:39:21;;;;;;;26.80;6.32;;;11.30;99.90;;;;;;5052363;28;20048;-73
2022/01/04 04:42:25;;;;;;;12.60;4.65;;;11.30;99.90;;;;;;5052205;28;20051;-73
2022/01/04 04:45:29;;;;;;;16.05;4.50;;;11.30;99.90;;;;;;5052566;28;20490;-73
2022/01/04 04:48:33;;;;;;;16.27;5.25;;;11.30;99.90;;;;;;5051704;28;20052;-73
2022/01/04 04:51:38;;;;;;;15.63;5.03;;;11.30;99.90;;;;;;5052467;28;20530;-73
2022/01/04 04:54:42;;;;;;;12.30;4.55;;;11.30;99.90;;;;;;5051688;28;20502;-73
2022/01/04 04:57:46;;;;;;;18.05;5.43;;;11.30;99.90;;;;;;5052326;28;20048;-74
2022/01/04 05:00:51;;;;;;;20.50;4.72;;;11.30;99.90;;;;;;5052066;28;20668;-74
2022/01/04 05:03:55;;;;;;;15.57;4.53;;;11.30;99.90;;;;;;5052004;28;20104;-73
2022/01/04 05:07:01;;;;;;;19.08;6.13;;;11.30;99.90;;;;;;5052070;28;20522;-73
2022/01/04 05:10:07;;;;;;;16.20;5.95;;;11.30;99.90;;;;;;5051879;28;20059;-73
2022/01/04 05:13:11;;;;;;;13.43;5.45;;;11.30;99.90;;;;;;5051941;28;20036;-73
2022/01/04 05:16:14;;;;;;;10.80;4.22;;;11.30;99.90;;;;;;5052469;28;20060;-74
2022/01/04 05:19:19;;;;;;;18.73;7.00;;;11.30;99.90;;;;;;5051681;28;20403;-73
2022/01/04 05:22:23;;;;;;;27.05;7.05;;;10.90;99.90;;;;;;5051279;28;20043;-73
2022/01/04 05:25:28;;;;;;;15.52;6.30;;;10.70;99.90;;;;;;5051337;28;20072;-73
2022/01/04 05:28:32;;;;;;;16.27;5.80;;;10.80;99.90;;;;;;5050889;28;20403;-73
2022/01/04 05:31:35;;;;;;;18.20;7.13;;;10.80;99.90;;;;;;5051363;28;20052;-73
2022/01/04 05:34:39;;;;;;;22.33;8.23;;;10.90;99.90;;;;;;5051062;28;20372;-73
2022/01/04 05:37:43;;;;;;;21.63;7.07;;;10.90;99.90;;;;;;5051522;28;20052;-73
2022/01/04 05:40:47;;;;;;;19.05;7.65;;;11.00;99.90;;;;;;5051416;28;20659;-73
2022/01/04 05:43:51;;;;;;;19.70;5.70;;;10.90;99.90;;;;;;5050988;28;20056;-73
2022/01/04 05:46:56;;;;;;;16.33;4.82;;;10.90;99.90;;;;;;5051418;28;20055;-73
2022/01/04 05:50:00;;;;;;;14.68;5.35;;;10.90;99.90;;;;;;5050708;28;20044;-73
2022/01/04 05:53:06;;;;;;;21.02;8.48;;;11.00;99.90;;;;;;5051223;28;20040;-73
2022/01/04 05:56:10;;;;;;;29.73;8.45;;;11.00;99.90;;;;;;5051243;28;20040;-73
2022/01/04 05:59:14;;;;;;;23.45;8.48;;;11.00;99.90;;;;;;5050699;28;20044;-73
2022/01/04 06:02:18;;;;;;;20.05;7.38;;;11.00;99.90;;;;;;5051107;28;20059;-73
2022/01/04 06:05:22;;;;;;;21.80;6.43;;;10.70;99.90;;;;;;5050694;28;20048;-73
2022/01/04 06:08:33;;;;;;;18.98;6.60;;;10.50;99.90;;;;;;5049738;28;20043;-73
2022/01/04 06:14:54;;;;;;;15.05;6.43;;;10.50;99.90;;;;;;5050772;28;20052;-73
2022/01/04 06:17:58;;;;;;;22.52;8.45;;;10.40;99.90;;;;;;5050872;28;20051;-73
2022/01/04 06:21:02;;;;;;;22.05;9.18;;;10.50;99.90;;;;;;5051035;28;20067;-73
2022/01/04 06:24:06;;;;;;;22.23;8.95;;;10.60;99.90;;;;;;5049502;28;20043;-73
2022/01/04 06:27:12;;;;;;;12.52;5.65;;;10.70;99.90;;;;;;5050452;28;20391;-73
2022/01/04 06:30:19;;;;;;;13.68;5.65;;;10.70;99.90;;;;;;5050413;28;20479;-73
2022/01/04 06:33:23;;;;;;;22.08;6.88;;;10.80;99.90;;;;;;5050441;28;20396;-73
2022/01/04 06:36:27;;;;;;;19.20;6.38;;;10.80;99.90;;;;;;5050500;28;20052;-74
2022/01/04 06:39:31;;;;;;;14.73;4.95;;;10.90;99.90;;;;;;5050117;28;20044;-73
2022/01/04 06:42:37;;;;;;;16.98;6.63;;;10.90;99.90;;;;;;5050279;28;20044;-73
2022/01/04 06:45:41;;;;;;;15.88;5.82;;;10.90;99.90;;;;;;5049902;28;20056;-73
2022/01/04 06:48:46;;;;;;;21.45;5.93;;;10.90;99.90;;;;;;5050123;28;20139;-73
2022/01/04 06:51:50;;;;;;;17.08;5.63;;;10.90;99.90;;;;;;5050386;28;20044;-73
2022/01/04 06:54:54;;;;;;;12.57;5.18;;;10.90;99.90;;;;;;5049273;28;20159;-73
2022/01/04 06:57:58;;;;;;;15.35;6.00;;;11.00;99.90;;;;;;5049117;28;20052;-74
2022/01/04 07:01:02;;;;;;;19.77;6.20;;;11.10;99.90;;;;;;5050077;28;20067;-73
2022/01/04 07:04:06;;;;;;;18.40;6.43;;;11.10;99.90;;;;;;5046783;28;20387;-72
2022/01/04 07:07:10;;;;;;;12.82;5.20;;;11.20;99.90;;;;;;5046017;28;20514;-73
2022/01/04 07:10:14;;;;;;;13.43;5.20;;;11.20;99.90;;;;;;5049173;28;20671;-73
2022/01/04 07:13:19;;;;;;;15.98;5.22;;;11.20;99.90;;;;;;5049292;28;20040;-73
2022/01/04 07:16:24;;;;;;;14.57;5.72;;;11.20;99.90;;;;;;5049314;28;20040;-74
2022/01/04 07:19:28;;;;;;;15.40;5.05;;;11.20;99.90;;;;;;5049613;28;20171;-73
2022/01/04 07:22:32;;;;;;;13.70;4.68;;;11.30;99.90;;;;;;5051792;28;20052;-74
2022/01/04 07:25:37;;;;;;;14.40;5.15;;;11.30;99.90;;;;;;5052818;28;20048;-73
2022/01/04 07:28:43;;;;;;;18.63;4.78;;;11.30;99.90;;;;;;5053406;28;20768;-73
2022/01/04 07:31:47;;;;;;;13.45;5.05;;;11.20;99.90;;;;;;5050472;28;20044;-73
2022/01/04 07:34:52;;;;;;;13.20;5.07;;;11.30;99.90;;;;;;5047132;28;20051;-73
2022/01/04 07:37:56;;;;;;;14.07;4.65;;;11.30;99.90;;;;;;5047789;28;20518;-73
2022/01/04 07:41:00;;;;;;;13.95;5.28;;;11.30;99.90;;;;;;5051530;28;20036;-73
2022/01/04 07:44:06;;;;;;;20.25;5.82;;;11.30;99.90;;;;;;5041471;28;20040;-73
2022/01/04 07:47:10;;;;;;;17.10;5.93;;;11.30;99.90;;;;;;5051235;28;20036;-74
2022/01/04 07:50:14;;;;;;;14.60;5.50;;;11.30;99.90;;;;;;5051981;28;20048;-73
2022/01/04 07:53:18;;;;;;;24.85;7.75;;;11.20;99.90;;;;;;5052355;28;20047;-73
2022/01/04 07:56:22;;;;;;;23.08;7.97;;;11.20;99.90;;;;;;5046345;28;20048;-73
2022/01/04 07:59:29;;;;;;;67.53;28.80;;;11.30;99.90;;;;;;5054877;28;20047;-73
2022/01/04 08:02:33;;;;;;;28.60;13.25;;;11.30;99.90;;;;;;5036093;28;20055;-73
2022/01/04 08:05:39;;;;;;;25.83;10.13;;;11.30;99.90;;;;;;5049172;28;20052;-73
2022/01/04 08:08:42;;;;;;;31.27;11.48;;;11.30;99.90;;;;;;5049502;28;20040;-73
2022/01/04 08:11:46;;;;;;;31.65;13.35;;;11.20;99.90;;;;;;5051357;28;20048;-73
2022/01/04 08:14:51;;;;;;;37.30;14.95;;;11.20;99.90;;;;;;5049059;28;20036;-73
2022/01/04 08:17:55;;;;;;;17.88;7.60;;;11.10;99.90;;;;;;5044291;28;21253;-73
2022/01/04 08:21:03;;;;;;;17.52;8.07;;;11.10;99.90;;;;;;5046949;28;20499;-73
2022/01/04 08:24:08;;;;;;;22.27;7.03;;;11.00;99.90;;;;;;5048490;28;20047;-73
2022/01/04 08:27:12;;;;;;;13.38;5.68;;;11.00;99.90;;;;;;5049928;28;20408;-74
2022/01/04 08:30:16;;;;;;;17.30;6.07;;;10.90;99.90;;;;;;5049740;28;20040;-73
2022/01/04 08:33:20;;;;;;;18.65;5.97;;;10.90;99.90;;;;;;5042679;28;20048;-73
2022/01/04 08:36:28;;;;;;;20.77;9.90;;;10.90;99.90;;;;;;5051045;28;20396;-73
2022/01/04 08:39:33;;;;;;;27.30;11.38;;;10.90;99.90;;;;;;5048144;28;20035;-73
2022/01/04 08:42:37;;;;;;;19.35;9.02;;;10.90;99.90;;;;;;5047599;28;20396;-73
2022/01/04 08:45:41;;;;;;;18.88;8.25;;;10.90;99.90;;;;;;5051191;28;20399;-73
2022/01/04 08:48:45;;;;;;;16.67;7.18;;;10.90;99.90;;;;;;5049433;28;20052;-73
2022/01/04 08:51:49;;;;;;;15.82;5.38;;;11.00;99.90;;;;;;5046047;28;20048;-73
2022/01/04 08:54:53;;;;;;;16.00;5.78;;;10.90;99.90;;;;;;5043259;28;20032;-73
2022/01/04 08:57:57;;;;;;;16.02;6.18;;;11.00;99.90;;;;;;5044949;28;20052;-73
2022/01/04 09:01:02;;;;;;;15.20;6.00;;;11.00;99.90;;;;;;5045756;28;20044;-74
2022/01/04 09:04:08;;;;;;;18.77;5.45;;;11.10;99.90;;;;;;5048372;28;21481;-74
2022/01/04 09:07:13;;;;;;;12.75;5.57;;;11.20;99.90;;;;;;5046963;28;20055;-74
2022/01/04 09:10:18;;;;;;;19.90;5.88;;;11.30;99.90;;;;;;5049742;28;20048;-73
2022/01/04 09:13:25;;;;;;;17.70;6.43;;;11.40;99.90;;;;;;5041117;28;20052;-73
2022/01/04 09:19:51;;;;;;;16.60;8.27;;;11.60;99.90;;;;;;5032785;28;20040;-73
2022/01/04 09:22:56;;;;;;;18.90;8.10;;;11.70;99.90;;;;;;5043664;28;20060;-72
2022/01/04 09:26:01;;;;;;;12.52;6.10;;;11.80;99.90;;;;;;5044546;28;20522;-73
2022/01/04 09:29:07;;;;;;;16.95;8.80;;;12.00;99.90;;;;;;5042667;28;20036;-73
2022/01/04 09:32:16;;;;;;;17.95;7.28;;;12.20;99.90;;;;;;5045499;28;20048;-74
2022/01/04 09:35:21;;;;;;;18.27;6.00;;;12.40;99.90;;;;;;5049485;28;20431;-73
2022/01/04 09:38:25;;;;;;;13.77;5.32;;;12.80;99.90;;;;;;5028776;28;20499;-73
2022/01/04 09:41:29;;;;;;;14.07;5.20;;;13.30;99.90;;;;;;5042471;28;20060;-73
2022/01/04 09:44:34;;;;;;;16.30;5.50;;;13.50;99.90;;;;;;5047961;28;20056;-73
2022/01/04 09:47:38;;;;;;;13.85;5.25;;;13.70;99.90;;;;;;5047383;28;20498;-73
2022/01/04 09:50:42;;;;;;;13.38;5.47;;;13.40;99.90;;;;;;5039960;28;20491;-72
2022/01/04 09:53:47;;;;;;;17.52;5.22;;;13.10;99.90;;;;;;5050820;28;20515;-73
2022/01/04 09:56:52;;;;;;;17.92;7.65;;;13.00;99.90;;;;;;5040356;28;20048;-73
2022/01/04 09:59:56;;;;;;;17.50;6.68;;;12.90;99.90;;;;;;5043273;28;20764;-73
2022/01/04 10:03:16;;;;;;;11.35;5.47;;;12.90;99.90;;;;;;5047448;28;20487;-73
2022/01/04 10:06:20;;;;;;;16.17;5.20;;;13.00;99.90;;;;;;5043675;28;20147;-72
2022/01/04 10:09:45;;;;;;;16.67;5.43;;;13.00;99.90;;;;;;5043298;28;20546;-74
2022/01/04 10:12:52;;;;;;;13.30;4.90;;;13.10;99.90;;;;;;5047077;28;20041;-74
2022/01/04 10:15:56;;;;;;;11.95;5.78;;;13.30;99.90;;;;;;5044413;28;20044;-74
2022/01/04 10:19:01;;;;;;;18.15;4.65;;;13.40;99.90;;;;;;5042590;28;20048;-73
2022/01/04 10:22:27;;;;;;;16.13;4.68;;;13.40;99.90;;;;;;5046442;28;20044;-72
2022/01/04 10:25:31;;;;;;;16.67;4.85;;;13.70;99.90;;;;;;5049782;28;20051;-74
2022/01/04 10:28:41;;;;;;;14.73;4.93;;;14.30;99.90;;;;;;5047588;28;20064;-73
2022/01/04 10:31:45;;;;;;;16.52;5.47;;;14.30;99.90;;;;;;5048907;28;20056;-73
2022/01/04 10:34:50;;;;;;;13.63;4.78;;;14.00;99.90;;;;;;5048709;28;20048;-73
2022/01/04 10:37:55;;;;;;;11.52;4.88;;;13.80;99.90;;;;;;5049386;28;20518;-73
2022/01/04 10:41:03;;;;;;;10.38;4.72;;;13.80;99.90;;;;;;5049262;28;20052;-73
2022/01/04 10:44:10;;;;;;;13.88;4.93;;;14.00;99.90;;;;;;5043180;28;20044;-73
2022/01/04 10:47:14;;;;;;;12.82;5.00;;;14.60;99.90;;;;;;5046902;28;20503;-73
2022/01/04 10:50:35;;;;;;;22.98;5.45;;;14.50;99.90;;;;;;5042510;28;20056;-72
2022/01/04 10:53:45;;;;;;;16.05;4.97;;;13.80;99.90;;;;;;5049230;28;20047;-72
2022/01/04 10:57:04;;;;;;;17.20;4.47;;;13.80;99.90;;;;;;5043512;28;20044;-73
2022/01/04 11:00:16;;;;;;;11.85;4.18;;;13.40;99.90;;;;;;5033449;28;20044;-74
2022/01/04 11:03:30;;;;;;;11.85;4.25;;;13.20;99.90;;;;;;5049140;28;20502;-73
2022/01/04 11:06:38;;;;;;;16.15;4.78;;;13.20;99.90;;;;;;5034523;28;20068;-72
2022/01/04 11:09:43;;;;;;;11.55;4.40;;;13.20;99.90;;;;;;5052534;28;20083;-73
2022/01/04 11:12:48;;;;;;;19.98;5.70;;;13.00;99.90;;;;;;5048003;28;20040;-73
2022/01/04 11:15:53;;;;;;;14.93;4.53;;;12.80;99.90;;;;;;5050941;28;20040;-73
2022/01/04 11:18:58;;;;;;;19.05;5.00;;;12.90;99.90;;;;;;5052735;28;20048;-72
2022/01/04 11:22:04;;;;;;;13.82;4.20;;;12.80;99.90;;;;;;5052603;28;20064;-74
2022/01/04 11:25:11;;;;;;;13.88;5.75;;;12.80;99.90;;;;;;5050657;28;20060;-74
2022/01/04 11:28:16;;;;;;;12.63;5.68;;;12.90;99.90;;;;;;5042995;28;20506;-72
2022/01/04 11:31:45;;;;;;;21.70;6.07;;;13.10;99.90;;;;;;5047780;28;20047;-72
2022/01/04 11:34:58;;;;;;;18.73;7.22;;;13.20;99.90;;;;;;5044568;28;20511;-72
2022/01/04 11:38:04;;;;;;;19.48;6.05;;;13.40;99.90;;;;;;5049344;28;20044;-73
2022/01/04 11:41:07;;;;;;;14.48;5.68;;;13.40;99.90;;;;;;5051143;28;20051;-73
2022/01/04 11:44:26;;;;;;;16.15;5.72;;;13.50;99.90;;;;;;5044943;28;20095;-73
2022/01/04 11:47:32;;;;;;;13.98;4.40;;;13.70;99.90;;;;;;5047466;28;20032;-72
2022/01/04 11:50:36;;;;;;;15.25;5.03;;;13.80;99.90;;;;;;5037231;28;20064;-73
2022/01/04 11:54:17;;;;;;;16.90;4.75;;;13.80;99.90;;;;;;5050707;28;20395;-73
2022/01/04 11:57:21;;;;;;;8.18;4.30;;;13.90;99.90;;;;;;5053037;28;20510;-72
2022/01/04 12:00:30;;;;;;;9.73;3.65;;;14.30;99.90;;;;;;5044603;28;20050;-73
2022/01/04 12:03:50;;;;;;;11.85;4.22;;;14.10;99.90;;;;;;5052657;28;20036;-73
2022/01/04 12:06:57;;;;;;;8.52;3.75;;;14.20;99.90;;;;;;5044921;28;20040;-73
2022/01/04 12:10:19;;;;;;;12.10;3.85;;;15.30;99.90;;;;;;5047581;28;20044;-73
2022/01/04 12:13:24;;;;;;;10.45;3.85;;;15.70;99.90;;;;;;5054608;28;20392;-73
2022/01/04 12:16:31;;;;;;;7.43;3.67;;;15.30;99.90;;;;;;5049626;28;20491;-73
2022/01/04 12:19:51;;;;;;;12.05;4.72;;;14.90;99.90;;;;;;5047004;28;20040;-72
2022/01/04 12:22:55;;;;;;;16.92;4.40;;;14.30;99.90;;;;;;5050746;28;20048;-73
2022/01/04 12:26:13;;;;;;;10.25;3.85;;;14.00;99.90;;;;;;5047878;28;20384;-73
2022/01/04 12:29:21;;;;;;;10.10;3.65;;;13.90;99.90;;;;;;5049267;28;20419;-73
2022/01/04 12:32:26;;;;;;;11.85;4.20;;;13.50;99.90;;;;;;5043420;28;20048;-73
2022/01/04 12:35:47;;;;;;;10.82;4.25;;;13.20;99.90;;;;;;5042718;28;20051;-72
2022/01/04 12:38:57;;;;;;;15.80;4.50;;;13.30;99.90;;;;;;5048603;28;20392;-73
2022/01/04 12:42:02;;;;;;;8.80;4.00;;;13.30;99.90;;;;;;5047972;28;20245;-73
2022/01/04 12:45:06;;;;;;;12.40;4.57;;;13.40;99.90;;;;;;5042235;28;20116;-74
2022/01/04 12:48:11;;;;;;;12.18;4.65;;;13.60;99.90;;;;;;5041142;28;20048;-73
2022/01/04 12:51:47;;;;;;;22.90;4.82;;;13.70;99.90;;;;;;5041475;28;20044;-73
2022/01/04 12:54:52;;;;;;;14.23;5.05;;;13.80;99.90;;;;;;5045832;28;20052;-74
2022/01/04 12:57:55;;;;;;;11.05;4.53;;;14.00;99.90;;;;;;5051283;28;20044;-73
2022/01/04 13:00:59;;;;;;;16.50;4.57;;;14.30;99.90;;;;;;5050971;28;20059;-72
2022/01/04 13:04:20;;;;;;;13.00;3.63;;;14.70;99.90;;;;;;5050784;28;20047;-73
2022/01/04 13:07:32;;;;;;;10.95;3.42;;;15.60;99.90;;;;;;5051510;28;20047;-73
2022/01/04 13:10:37;;;;;;;6.82;3.15;;;17.10;99.90;;;;;;5049803;28;20066;-72
2022/01/04 13:13:41;;;;;;;7.00;2.90;;;17.30;99.90;;;;;;5049261;28;20643;-73
2022/01/04 13:16:48;;;;;;;9.70;3.53;;;17.90;99.90;;;;;;5050308;28;20040;-73
2022/01/04 13:19:55;;;;;;;11.82;3.35;;;17.40;99.90;;;;;;5038823;28;20052;-72
2022/01/04 13:23:06;;;;;;;7.05;3.47;;;15.50;99.90;;;;;;5047602;28;20487;-73
2022/01/04 13:26:11;;;;;;;9.25;3.30;;;14.50;99.90;;;;;;5041414;28;20403;-72
2022/01/04 13:29:23;;;;;;;7.20;2.92;;;14.10;99.90;;;;;;5049717;28;20486;-72
2022/01/04 13:32:34;;;;;;;9.23;4.28;;;14.50;99.90;;;;;;5050391;28;20047;-73
2022/01/04 13:35:45;;;;;;;7.93;3.63;;;14.30;99.90;;;;;;5049720;28;20036;-73
2022/01/04 13:38:50;;;;;;;7.53;3.75;;;13.80;99.90;;;;;;5047222;28;20060;-73
2022/01/04 13:41:54;;;;;;;11.48;3.53;;;13.60;99.90;;;;;;5049688;28;20052;-73
2022/01/04 13:45:00;;;;;;;7.45;4.15;;;13.40;99.90;;;;;;5049722;28;20040;-72
2022/01/04 13:48:04;;;;;;;8.15;4.35;;;13.00;99.90;;;;;;5034720;28;20055;-72
2022/01/04 13:51:15;;;;;;;13.85;4.18;;;12.80;99.90;;;;;;5048468;28;20135;-73
2022/01/04 13:54:20;;;;;;;10.90;3.90;;;12.60;99.90;;;;;;5050408;28;20048;-73
2022/01/04 13:57:30;;;;;;;10.20;4.70;;;12.60;99.90;;;;;;5045033;28;20044;-73
2022/01/04 14:00:35;;;;;;;23.65;10.52;;;12.50;99.90;;;;;;5049474;28;20048;-74
2022/01/04 14:03:41;;;;;;;10.90;4.47;;;12.50;99.90;;;;;;5046041;28;20055;-73
2022/01/04 14:06:51;;;;;;;14.27;4.72;;;12.30;99.90;;;;;;5049160;28;20064;-73
2022/01/04 14:09:56;;;;;;;9.95;4.50;;;12.30;99.90;;;;;;5048592;28;20036;-73
2022/01/04 14:13:00;;;;;;;14.25;5.03;;;12.40;99.90;;;;;;5049840;28;20055;-74
2022/01/04 14:16:23;;;;;;;12.95;4.63;;;12.40;99.90;;;;;;5049534;28;20032;-73
2022/01/04 14:19:34;;;;;;;8.50;4.47;;;12.40;99.90;;;;;;5049142;28;20043;-72
2022/01/04 14:22:40;;;;;;;16.30;6.50;;;12.50;99.90;;;;;;5047976;28;20052;-74
2022/01/04 14:25:44;;;;;;;12.05;4.95;;;12.50;99.90;;;;;;5049363;28;20043;-73
2022/01/04 14:28:48;;;;;;;11.20;5.70;;;12.50;99.90;;;;;;5048750;28;20052;-72
2022/01/04 14:31:54;;;;;;;9.18;4.45;;;12.40;99.90;;;;;;5039428;28;20052;-73
2022/01/04 14:35:10;;;;;;;10.90;4.28;;;12.40;99.90;;;;;;5048631;28;20048;-73
2022/01/04 14:38:14;;;;;;;9.68;4.93;;;12.40;99.90;;;;;;5038567;28;20044;-73
2022/01/04 14:41:18;;;;;;;13.27;5.13;;;12.40;99.90;;;;;;5046514;28;20052;-72
2022/01/04 14:44:22;;;;;;;14.25;5.00;;;12.50;99.90;;;;;;5049557;28;20048;-73
2022/01/04 14:47:27;;;;;;;9.00;4.20;;;12.60;99.90;;;;;;5035221;28;20032;-72
2022/01/04 14:50:31;;;;;;;11.45;5.75;;;12.70;99.90;;;;;;5038153;28;21054;-73
2022/01/04 14:53:35;;;;;;;12.60;5.18;;;12.70;99.90;;;;;;5039324;28;20040;-72
2022/01/04 14:56:43;;;;;;;11.90;5.07;;;12.70;99.90;;;;;;5048407;28;20068;-72
2022/01/04 14:59:47;;;;;;;11.65;6.53;;;12.60;99.90;;;;;;5048630;28;20048;-73
2022/01/04 15:02:52;;;;;;;10.32;5.20;;;12.60;99.90;;;;;;5048999;28;20059;-73
2022/01/04 15:05:56;;;;;;;8.65;4.78;;;12.50;99.90;;;;;;5040413;28;20511;-73
2022/01/04 15:09:01;;;;;;;8.13;4.25;;;12.30;99.90;;;;;;5049279;28;20052;-74
2022/01/04 15:12:05;;;;;;;13.00;5.38;;;12.30;99.90;;;;;;5048369;28;20040;-73
2022/01/04 15:15:10;;;;;;;13.07;5.88;;;12.40;99.90;;;;;;5049349;28;20346;-73
2022/01/04 15:18:14;;;;;;;10.75;4.70;;;12.40;99.90;;;;;;5049639;28;20486;-72
2022/01/04 15:21:19;;;;;;;12.13;5.80;;;12.30;99.90;;;;;;5036609;28;20139;-74
2022/01/04 15:24:23;;;;;;;12.60;4.60;;;12.30;99.90;;;;;;5049509;28;20056;-72
2022/01/04 15:27:28;;;;;;;15.40;6.85;;;12.30;99.90;;;;;;5034920;28;20056;-73
2022/01/04 15:30:32;;;;;;;7.93;4.63;;;12.30;99.90;;;;;;5048528;28;20040;-73
2022/01/04 15:33:36;;;;;;;13.85;4.60;;;12.20;99.90;;;;;;5033188;28;20048;-73
2022/01/04 15:36:40;;;;;;;11.40;4.90;;;12.10;99.90;;;;;;5044729;28;20052;-73
2022/01/04 15:39:44;;;;;;;10.73;4.85;;;12.10;99.90;;;;;;5046068;28;20396;-72
2022/01/04 15:42:48;;;;;;;9.05;4.75;;;12.10;99.90;;;;;;5050854;28;20439;-73
2022/01/04 15:45:52;;;;;;;11.27;5.68;;;12.10;99.90;;;;;;5050937;28;20044;-73
2022/01/04 15:48:56;;;;;;;7.70;4.40;;;12.10;99.90;;;;;;5049310;28;20040;-72
2022/01/04 15:52:02;;;;;;;11.55;5.65;;;12.10;99.90;;;;;;5051924;28;20043;-73
2022/01/04 15:55:06;;;;;;;12.25;4.90;;;12.10;99.90;;;;;;5051680;28;20044;-73
2022/01/04 15:58:10;;;;;;;10.00;4.55;;;12.10;99.90;;;;;;5047795;28;20044;-72
2022/01/04 16:01:15;;;;;;;8.25;4.30;;;12.00;99.90;;;;;;5050804;28;20040;-73
2022/01/04 16:04:19;;;;;;;9.77;5.20;;;12.00;99.90;;;;;;5050429;28;20395;-73
2022/01/04 16:07:23;;;;;;;11.18;5.25;;;12.00;99.90;;;;;;5042959;28;20044;-73